Weather at Eordaea Airfield

Public forecast

Using degrees Celsius for public forecast. Weather courtesy of forecast.io.

Closest aviation weather report (METAR) to Eordaea Airfield

Closest report is Kozani State Airport Filippos, 20.8 nm (38.6 km) SE. Retrieved 2022/01/17 14:50 UTC (24 minutes ago):

LGKZ 171450Z AUTO 35007KT 320V030 //// // ////// 08/M03 Q1018 RE//

Closest aviation forecast (TAF) to Eordaea Airfield

Closest forecast is Ohrid St. Paul the Apostle Airport, 52.8 nm (97.8 km) NW. Retrieved 2022/01/17 15:30 UTC (0 seconds ago):

TAF LWOH 171430Z 1715/1815 32006KT 9999 BKN050 TEMPO 1715/1717 -RA TEMPO 1720/1802 5000 -SN OVC035